sensor_id;sensor_type;location;lat;lon;timestamp;P1;durP1;ratioP1;P2;durP2;ratioP2
13173;SDS011;6652;48.802;9.190;2023-05-07T00:00:42;7.15;;;3.85;;
13173;SDS011;6652;48.802;9.190;2023-05-07T00:03:09;11.25;;;4.40;;
13173;SDS011;6652;48.802;9.190;2023-05-07T00:05:38;8.88;;;4.57;;
13173;SDS011;6652;48.802;9.190;2023-05-07T00:08:06;9.95;;;4.60;;
13173;SDS011;6652;48.802;9.190;2023-05-07T00:10:33;10.02;;;4.03;;
13173;SDS011;6652;48.802;9.190;2023-05-07T00:13:00;9.07;;;3.80;;
13173;SDS011;6652;48.802;9.190;2023-05-07T00:15:28;13.10;;;4.75;;
13173;SDS011;6652;48.802;9.190;2023-05-07T00:17:55;9.65;;;4.72;;
13173;SDS011;6652;48.802;9.190;2023-05-07T00:20:23;8.55;;;4.00;;
13173;SDS011;6652;48.802;9.190;2023-05-07T00:22:50;13.85;;;4.47;;
13173;SDS011;6652;48.802;9.190;2023-05-07T00:25:17;8.85;;;4.32;;
13173;SDS011;6652;48.802;9.190;2023-05-07T00:27:45;9.45;;;3.88;;
13173;SDS011;6652;48.802;9.190;2023-05-07T00:30:12;9.68;;;4.03;;
13173;SDS011;6652;48.802;9.190;2023-05-07T00:32:41;7.95;;;4.50;;
13173;SDS011;6652;48.802;9.190;2023-05-07T00:35:10;8.45;;;4.05;;
13173;SDS011;6652;48.802;9.190;2023-05-07T00:37:37;13.32;;;4.63;;
13173;SDS011;6652;48.802;9.190;2023-05-07T00:40:05;10.45;;;4.25;;
13173;SDS011;6652;48.802;9.190;2023-05-07T00:42:33;11.23;;;5.07;;
13173;SDS011;6652;48.802;9.190;2023-05-07T00:45:00;13.10;;;4.63;;
13173;SDS011;6652;48.802;9.190;2023-05-07T00:47:26;8.48;;;4.38;;
13173;SDS011;6652;48.802;9.190;2023-05-07T00:49:55;10.02;;;4.47;;
13173;SDS011;6652;48.802;9.190;2023-05-07T00:52:23;10.73;;;5.97;;
13173;SDS011;6652;48.802;9.190;2023-05-07T00:54:52;13.32;;;5.38;;
13173;SDS011;6652;48.802;9.190;2023-05-07T00:57:20;10.65;;;5.13;;
13173;SDS011;6652;48.802;9.190;2023-05-07T00:59:47;9.95;;;5.10;;
13173;SDS011;6652;48.802;9.190;2023-05-07T01:02:14;13.27;;;4.97;;
13173;SDS011;6652;48.802;9.190;2023-05-07T01:04:41;9.48;;;4.85;;
13173;SDS011;6652;48.802;9.190;2023-05-07T01:07:09;12.90;;;4.80;;
13173;SDS011;6652;48.802;9.190;2023-05-07T01:09:36;15.25;;;5.22;;
13173;SDS011;6652;48.802;9.190;2023-05-07T01:12:03;9.48;;;4.70;;
13173;SDS011;6652;48.802;9.190;2023-05-07T01:14:31;9.63;;;5.05;;
13173;SDS011;6652;48.802;9.190;2023-05-07T01:16:58;14.80;;;5.88;;
13173;SDS011;6652;48.802;9.190;2023-05-07T01:19:25;11.90;;;5.25;;
13173;SDS011;6652;48.802;9.190;2023-05-07T01:21:53;17.02;;;5.72;;
13173;SDS011;6652;48.802;9.190;2023-05-07T01:24:28;11.02;;;5.85;;
13173;SDS011;6652;48.802;9.190;2023-05-07T01:26:56;16.25;;;6.03;;
13173;SDS011;6652;48.802;9.190;2023-05-07T01:29:23;11.63;;;5.50;;
13173;SDS011;6652;48.802;9.190;2023-05-07T01:31:50;14.23;;;5.20;;
13173;SDS011;6652;48.802;9.190;2023-05-07T01:34:18;12.63;;;5.60;;
13173;SDS011;6652;48.802;9.190;2023-05-07T01:36:47;11.95;;;5.72;;
13173;SDS011;6652;48.802;9.190;2023-05-07T01:39:14;15.85;;;6.18;;
13173;SDS011;6652;48.802;9.190;2023-05-07T01:41:43;19.83;;;6.35;;
13173;SDS011;6652;48.802;9.190;2023-05-07T01:44:12;13.35;;;5.80;;
13173;SDS011;6652;48.802;9.190;2023-05-07T01:46:40;16.40;;;6.22;;
13173;SDS011;6652;48.802;9.190;2023-05-07T01:49:07;16.58;;;5.30;;
13173;SDS011;6652;48.802;9.190;2023-05-07T01:54:27;18.48;;;6.00;;
13173;SDS011;6652;48.802;9.190;2023-05-07T01:56:56;20.23;;;6.60;;
13173;SDS011;6652;48.802;9.190;2023-05-07T01:59:23;16.40;;;6.50;;
13173;SDS011;6652;48.802;9.190;2023-05-07T02:01:50;19.10;;;6.03;;
13173;SDS011;6652;48.802;9.190;2023-05-07T02:04:16;18.67;;;6.55;;
13173;SDS011;6652;48.802;9.190;2023-05-07T02:06:43;21.92;;;7.38;;
13173;SDS011;6652;48.802;9.190;2023-05-07T02:09:10;16.65;;;6.13;;
13173;SDS011;6652;48.802;9.190;2023-05-07T02:11:37;16.85;;;6.97;;
13173;SDS011;6652;48.802;9.190;2023-05-07T02:14:06;18.65;;;6.72;;
13173;SDS011;6652;48.802;9.190;2023-05-07T02:16:32;14.95;;;5.88;;
13173;SDS011;6652;48.802;9.190;2023-05-07T02:18:59;14.70;;;5.95;;
13173;SDS011;6652;48.802;9.190;2023-05-07T02:21:26;15.90;;;6.45;;
13173;SDS011;6652;48.802;9.190;2023-05-07T02:23:53;14.63;;;5.43;;
13173;SDS011;6652;48.802;9.190;2023-05-07T02:26:20;15.60;;;5.72;;
13173;SDS011;6652;48.802;9.190;2023-05-07T02:28:49;18.10;;;5.78;;
13173;SDS011;6652;48.802;9.190;2023-05-07T02:31:18;11.13;;;5.10;;
13173;SDS011;6652;48.802;9.190;2023-05-07T02:33:44;13.43;;;5.75;;
13173;SDS011;6652;48.802;9.190;2023-05-07T02:36:12;13.82;;;5.30;;
13173;SDS011;6652;48.802;9.190;2023-05-07T02:38:38;15.18;;;5.53;;
13173;SDS011;6652;48.802;9.190;2023-05-07T02:41:05;11.80;;;5.00;;
13173;SDS011;6652;48.802;9.190;2023-05-07T02:43:32;16.60;;;6.28;;
13173;SDS011;6652;48.802;9.190;2023-05-07T02:46:02;13.15;;;5.03;;
13173;SDS011;6652;48.802;9.190;2023-05-07T02:48:31;11.80;;;5.35;;
13173;SDS011;6652;48.802;9.190;2023-05-07T02:50:58;13.57;;;5.97;;
13173;SDS011;6652;48.802;9.190;2023-05-07T02:53:26;12.43;;;4.82;;
13173;SDS011;6652;48.802;9.190;2023-05-07T02:55:55;14.55;;;5.95;;
13173;SDS011;6652;48.802;9.190;2023-05-07T02:58:22;17.83;;;6.05;;
13173;SDS011;6652;48.802;9.190;2023-05-07T03:00:49;16.25;;;6.05;;
13173;SDS011;6652;48.802;9.190;2023-05-07T03:03:16;15.45;;;5.85;;
13173;SDS011;6652;48.802;9.190;2023-05-07T03:05:44;14.32;;;6.32;;
13173;SDS011;6652;48.802;9.190;2023-05-07T03:08:11;17.13;;;6.93;;
13173;SDS011;6652;48.802;9.190;2023-05-07T03:10:38;11.95;;;6.35;;
13173;SDS011;6652;48.802;9.190;2023-05-07T03:13:05;10.63;;;6.40;;
13173;SDS011;6652;48.802;9.190;2023-05-07T03:15:32;12.10;;;5.70;;
13173;SDS011;6652;48.802;9.190;2023-05-07T03:17:59;12.40;;;5.70;;
13173;SDS011;6652;48.802;9.190;2023-05-07T03:20:26;19.08;;;6.07;;
13173;SDS011;6652;48.802;9.190;2023-05-07T03:22:54;17.30;;;6.78;;
13173;SDS011;6652;48.802;9.190;2023-05-07T03:25:20;13.65;;;6.05;;
13173;SDS011;6652;48.802;9.190;2023-05-07T03:27:47;17.13;;;6.22;;
13173;SDS011;6652;48.802;9.190;2023-05-07T03:30:14;14.73;;;6.35;;
13173;SDS011;6652;48.802;9.190;2023-05-07T03:32:41;14.90;;;6.50;;
13173;SDS011;6652;48.802;9.190;2023-05-07T03:35:08;14.13;;;6.88;;
13173;SDS011;6652;48.802;9.190;2023-05-07T03:37:35;14.02;;;7.15;;
13173;SDS011;6652;48.802;9.190;2023-05-07T03:40:06;16.92;;;6.10;;
13173;SDS011;6652;48.802;9.190;2023-05-07T03:42:35;17.63;;;6.68;;
13173;SDS011;6652;48.802;9.190;2023-05-07T03:45:02;10.82;;;5.80;;
13173;SDS011;6652;48.802;9.190;2023-05-07T03:47:29;10.68;;;6.20;;
13173;SDS011;6652;48.802;9.190;2023-05-07T03:49:56;14.35;;;6.28;;
13173;SDS011;6652;48.802;9.190;2023-05-07T03:52:23;10.48;;;5.90;;
13173;SDS011;6652;48.802;9.190;2023-05-07T03:54:50;11.77;;;5.90;;
13173;SDS011;6652;48.802;9.190;2023-05-07T03:57:20;12.88;;;6.20;;
13173;SDS011;6652;48.802;9.190;2023-05-07T03:59:46;14.48;;;6.40;;
13173;SDS011;6652;48.802;9.190;2023-05-07T04:02:13;14.15;;;6.43;;
13173;SDS011;6652;48.802;9.190;2023-05-07T04:04:40;10.93;;;5.63;;
13173;SDS011;6652;48.802;9.190;2023-05-07T04:07:07;10.35;;;6.10;;
13173;SDS011;6652;48.802;9.190;2023-05-07T04:09:34;10.85;;;5.53;;
13173;SDS011;6652;48.802;9.190;2023-05-07T04:12:01;12.40;;;5.60;;
13173;SDS011;6652;48.802;9.190;2023-05-07T04:14:30;8.65;;;5.18;;
13173;SDS011;6652;48.802;9.190;2023-05-07T04:16:57;11.05;;;5.47;;
13173;SDS011;6652;48.802;9.190;2023-05-07T04:19:24;13.10;;;6.15;;
13173;SDS011;6652;48.802;9.190;2023-05-07T04:21:51;9.25;;;5.25;;
13173;SDS011;6652;48.802;9.190;2023-05-07T04:24:25;9.25;;;5.13;;
13173;SDS011;6652;48.802;9.190;2023-05-07T04:26:53;11.77;;;5.93;;
13173;SDS011;6652;48.802;9.190;2023-05-07T04:29:20;8.70;;;5.28;;
13173;SDS011;6652;48.802;9.190;2023-05-07T04:31:48;7.53;;;4.82;;
13173;SDS011;6652;48.802;9.190;2023-05-07T04:34:15;7.40;;;4.78;;
13173;SDS011;6652;48.802;9.190;2023-05-07T04:36:41;8.98;;;5.10;;
13173;SDS011;6652;48.802;9.190;2023-05-07T04:39:08;7.15;;;4.53;;
13173;SDS011;6652;48.802;9.190;2023-05-07T04:41:35;9.30;;;4.70;;
13173;SDS011;6652;48.802;9.190;2023-05-07T04:44:02;6.88;;;4.32;;
13173;SDS011;6652;48.802;9.190;2023-05-07T04:46:30;11.55;;;4.90;;
13173;SDS011;6652;48.802;9.190;2023-05-07T04:48:59;7.25;;;4.47;;
13173;SDS011;6652;48.802;9.190;2023-05-07T04:51:25;8.10;;;4.80;;
13173;SDS011;6652;48.802;9.190;2023-05-07T04:53:52;19.27;;;5.50;;
13173;SDS011;6652;48.802;9.190;2023-05-07T04:56:19;7.28;;;4.60;;
13173;SDS011;6652;48.802;9.190;2023-05-07T04:58:46;8.82;;;4.57;;
13173;SDS011;6652;48.802;9.190;2023-05-07T05:01:13;9.77;;;4.97;;
13173;SDS011;6652;48.802;9.190;2023-05-07T05:03:40;9.30;;;4.60;;
13173;SDS011;6652;48.802;9.190;2023-05-07T05:06:08;8.45;;;4.93;;
13173;SDS011;6652;48.802;9.190;2023-05-07T05:08:35;12.27;;;6.13;;
13173;SDS011;6652;48.802;9.190;2023-05-07T05:11:01;9.15;;;4.43;;
13173;SDS011;6652;48.802;9.190;2023-05-07T05:13:28;10.25;;;4.97;;
13173;SDS011;6652;48.802;9.190;2023-05-07T05:15:55;8.60;;;5.13;;
13173;SDS011;6652;48.802;9.190;2023-05-07T05:18:22;8.77;;;4.95;;
13173;SDS011;6652;48.802;9.190;2023-05-07T05:20:49;7.45;;;4.60;;
13173;SDS011;6652;48.802;9.190;2023-05-07T05:23:18;10.93;;;4.97;;
13173;SDS011;6652;48.802;9.190;2023-05-07T05:25:45;9.52;;;5.25;;
13173;SDS011;6652;48.802;9.190;2023-05-07T05:28:12;7.47;;;4.50;;
13173;SDS011;6652;48.802;9.190;2023-05-07T05:30:39;7.55;;;4.82;;
13173;SDS011;6652;48.802;9.190;2023-05-07T05:33:05;9.50;;;4.75;;
13173;SDS011;6652;48.802;9.190;2023-05-07T05:35:32;8.77;;;4.43;;
13173;SDS011;6652;48.802;9.190;2023-05-07T05:38:00;8.45;;;4.57;;
13173;SDS011;6652;48.802;9.190;2023-05-07T05:40:28;6.78;;;3.97;;
13173;SDS011;6652;48.802;9.190;2023-05-07T05:42:55;9.15;;;4.40;;
13173;SDS011;6652;48.802;9.190;2023-05-07T05:45:22;12.63;;;4.55;;
13173;SDS011;6652;48.802;9.190;2023-05-07T05:47:48;6.80;;;4.32;;
13173;SDS011;6652;48.802;9.190;2023-05-07T05:50:15;7.82;;;4.35;;
13173;SDS011;6652;48.802;9.190;2023-05-07T05:52:42;7.22;;;4.68;;
13173;SDS011;6652;48.802;9.190;2023-05-07T05:55:09;7.25;;;4.60;;
13173;SDS011;6652;48.802;9.190;2023-05-07T05:57:38;9.23;;;4.75;;
13173;SDS011;6652;48.802;9.190;2023-05-07T06:00:05;8.48;;;4.72;;
13173;SDS011;6652;48.802;9.190;2023-05-07T06:02:33;6.43;;;4.45;;
13173;SDS011;6652;48.802;9.190;2023-05-07T06:05:00;10.30;;;4.80;;
13173;SDS011;6652;48.802;9.190;2023-05-07T06:07:27;8.38;;;4.82;;
13173;SDS011;6652;48.802;9.190;2023-05-07T06:09:54;10.27;;;4.43;;
13173;SDS011;6652;48.802;9.190;2023-05-07T06:12:20;10.82;;;4.80;;
13173;SDS011;6652;48.802;9.190;2023-05-07T06:14:48;8.90;;;4.55;;
13173;SDS011;6652;48.802;9.190;2023-05-07T06:17:15;12.05;;;4.75;;
13173;SDS011;6652;48.802;9.190;2023-05-07T06:19:42;8.48;;;4.80;;
13173;SDS011;6652;48.802;9.190;2023-05-07T06:22:09;9.75;;;4.70;;
13173;SDS011;6652;48.802;9.190;2023-05-07T06:24:36;10.68;;;5.10;;
13173;SDS011;6652;48.802;9.190;2023-05-07T06:27:04;7.28;;;4.90;;
13173;SDS011;6652;48.802;9.190;2023-05-07T06:29:31;10.82;;;5.55;;
13173;SDS011;6652;48.802;9.190;2023-05-07T06:32:07;10.50;;;5.35;;
13173;SDS011;6652;48.802;9.190;2023-05-07T06:34:34;8.82;;;4.82;;
13173;SDS011;6652;48.802;9.190;2023-05-07T06:37:01;9.95;;;4.70;;
13173;SDS011;6652;48.802;9.190;2023-05-07T06:39:28;10.50;;;4.93;;
13173;SDS011;6652;48.802;9.190;2023-05-07T06:41:55;7.05;;;4.70;;
13173;SDS011;6652;48.802;9.190;2023-05-07T06:44:22;7.57;;;4.28;;
13173;SDS011;6652;48.802;9.190;2023-05-07T06:46:49;7.00;;;4.45;;
13173;SDS011;6652;48.802;9.190;2023-05-07T06:49:22;7.40;;;4.72;;
13173;SDS011;6652;48.802;9.190;2023-05-07T06:51:49;7.30;;;4.47;;
13173;SDS011;6652;48.802;9.190;2023-05-07T06:56:53;8.07;;;4.35;;
13173;SDS011;6652;48.802;9.190;2023-05-07T06:59:19;8.00;;;4.50;;
13173;SDS011;6652;48.802;9.190;2023-05-07T07:01:46;7.55;;;4.38;;
13173;SDS011;6652;48.802;9.190;2023-05-07T07:04:13;7.55;;;4.10;;
13173;SDS011;6652;48.802;9.190;2023-05-07T07:06:41;6.60;;;3.95;;
13173;SDS011;6652;48.802;9.190;2023-05-07T07:09:08;5.72;;;4.03;;
13173;SDS011;6652;48.802;9.190;2023-05-07T07:11:35;9.07;;;3.90;;
13173;SDS011;6652;48.802;9.190;2023-05-07T07:14:01;8.00;;;3.78;;
13173;SDS011;6652;48.802;9.190;2023-05-07T07:16:30;7.75;;;4.10;;
13173;SDS011;6652;48.802;9.190;2023-05-07T07:18:56;5.55;;;3.58;;
13173;SDS011;6652;48.802;9.190;2023-05-07T07:21:23;8.40;;;3.60;;
13173;SDS011;6652;48.802;9.190;2023-05-07T07:23:51;5.35;;;3.33;;
13173;SDS011;6652;48.802;9.190;2023-05-07T07:26:18;6.43;;;3.55;;
13173;SDS011;6652;48.802;9.190;2023-05-07T07:28:45;8.90;;;3.80;;
13173;SDS011;6652;48.802;9.190;2023-05-07T07:31:12;6.50;;;3.60;;
13173;SDS011;6652;48.802;9.190;2023-05-07T07:33:40;6.90;;;3.60;;
13173;SDS011;6652;48.802;9.190;2023-05-07T07:36:07;8.98;;;3.88;;
13173;SDS011;6652;48.802;9.190;2023-05-07T07:38:34;8.95;;;3.65;;
13173;SDS011;6652;48.802;9.190;2023-05-07T07:41:02;6.43;;;3.47;;
13173;SDS011;6652;48.802;9.190;2023-05-07T07:43:29;11.10;;;4.28;;
13173;SDS011;6652;48.802;9.190;2023-05-07T07:45:56;5.90;;;4.03;;
13173;SDS011;6652;48.802;9.190;2023-05-07T07:48:23;12.20;;;4.65;;
13173;SDS011;6652;48.802;9.190;2023-05-07T07:50:50;3.97;;;3.28;;
13173;SDS011;6652;48.802;9.190;2023-05-07T07:53:16;9.05;;;3.35;;
13173;SDS011;6652;48.802;9.190;2023-05-07T07:55:43;8.57;;;5.00;;
13173;SDS011;6652;48.802;9.190;2023-05-07T07:58:12;4.28;;;2.90;;
13173;SDS011;6652;48.802;9.190;2023-05-07T08:00:39;11.40;;;3.50;;
13173;SDS011;6652;48.802;9.190;2023-05-07T08:03:05;6.30;;;3.03;;
13173;SDS011;6652;48.802;9.190;2023-05-07T08:05:35;5.03;;;2.95;;
13173;SDS011;6652;48.802;9.190;2023-05-07T08:08:03;8.68;;;3.20;;
13173;SDS011;6652;48.802;9.190;2023-05-07T08:10:30;7.25;;;3.13;;
13173;SDS011;6652;48.802;9.190;2023-05-07T08:12:59;7.53;;;2.85;;
13173;SDS011;6652;48.802;9.190;2023-05-07T08:15:28;7.13;;;2.60;;
13173;SDS011;6652;48.802;9.190;2023-05-07T08:17:54;8.30;;;3.10;;
13173;SDS011;6652;48.802;9.190;2023-05-07T08:20:22;5.38;;;2.67;;
13173;SDS011;6652;48.802;9.190;2023-05-07T08:22:49;6.30;;;2.55;;
13173;SDS011;6652;48.802;9.190;2023-05-07T08:25:15;7.00;;;3.05;;
13173;SDS011;6652;48.802;9.190;2023-05-07T08:27:42;4.07;;;2.42;;
13173;SDS011;6652;48.802;9.190;2023-05-07T08:30:10;7.93;;;2.92;;
13173;SDS011;6652;48.802;9.190;2023-05-07T08:32:39;6.43;;;2.80;;
13173;SDS011;6652;48.802;9.190;2023-05-07T08:35:06;3.80;;;2.33;;
13173;SDS011;6652;48.802;9.190;2023-05-07T08:37:33;4.90;;;2.50;;
13173;SDS011;6652;48.802;9.190;2023-05-07T08:40:00;4.18;;;2.20;;
13173;SDS011;6652;48.802;9.190;2023-05-07T08:42:27;4.13;;;2.22;;
13173;SDS011;6652;48.802;9.190;2023-05-07T08:44:55;5.22;;;2.53;;
13173;SDS011;6652;48.802;9.190;2023-05-07T08:47:27;6.03;;;2.75;;
13173;SDS011;6652;48.802;9.190;2023-05-07T08:50:01;6.57;;;2.00;;
13173;SDS011;6652;48.802;9.190;2023-05-07T08:52:28;5.25;;;2.30;;
13173;SDS011;6652;48.802;9.190;2023-05-07T08:54:55;4.45;;;2.22;;
13173;SDS011;6652;48.802;9.190;2023-05-07T08:57:22;6.35;;;2.40;;
13173;SDS011;6652;48.802;9.190;2023-05-07T08:59:49;4.38;;;2.33;;
13173;SDS011;6652;48.802;9.190;2023-05-07T09:02:16;8.35;;;2.13;;
13173;SDS011;6652;48.802;9.190;2023-05-07T09:04:43;7.15;;;2.72;;
13173;SDS011;6652;48.802;9.190;2023-05-07T09:07:17;4.00;;;2.25;;
13173;SDS011;6652;48.802;9.190;2023-05-07T09:09:44;5.40;;;2.10;;
13173;SDS011;6652;48.802;9.190;2023-05-07T09:12:12;4.85;;;1.98;;
13173;SDS011;6652;48.802;9.190;2023-05-07T09:14:43;6.63;;;1.90;;
13173;SDS011;6652;48.802;9.190;2023-05-07T09:17:28;2.87;;;1.70;;
13173;SDS011;6652;48.802;9.190;2023-05-07T09:20:01;4.53;;;2.38;;
13173;SDS011;6652;48.802;9.190;2023-05-07T09:22:35;7.47;;;2.20;;
13173;SDS011;6652;48.802;9.190;2023-05-07T09:25:03;5.85;;;2.00;;
13173;SDS011;6652;48.802;9.190;2023-05-07T09:27:31;2.83;;;1.92;;
13173;SDS011;6652;48.802;9.190;2023-05-07T09:29:58;6.90;;;1.75;;
13173;SDS011;6652;48.802;9.190;2023-05-07T09:32:25;4.65;;;2.28;;
13173;SDS011;6652;48.802;9.190;2023-05-07T09:34:52;5.72;;;2.10;;
13173;SDS011;6652;48.802;9.190;2023-05-07T09:37:19;6.80;;;1.92;;
13173;SDS011;6652;48.802;9.190;2023-05-07T09:39:48;3.75;;;1.80;;
13173;SDS011;6652;48.802;9.190;2023-05-07T09:42:16;4.13;;;1.60;;
13173;SDS011;6652;48.802;9.190;2023-05-07T09:44:49;3.08;;;1.70;;
13173;SDS011;6652;48.802;9.190;2023-05-07T09:47:18;4.88;;;1.95;;
13173;SDS011;6652;48.802;9.190;2023-05-07T09:49:47;5.35;;;2.00;;
13173;SDS011;6652;48.802;9.190;2023-05-07T09:52:14;5.25;;;1.85;;
13173;SDS011;6652;48.802;9.190;2023-05-07T09:54:42;3.45;;;1.95;;
13173;SDS011;6652;48.802;9.190;2023-05-07T09:57:11;3.25;;;1.52;;
13173;SDS011;6652;48.802;9.190;2023-05-07T09:59:39;6.45;;;1.88;;
13173;SDS011;6652;48.802;9.190;2023-05-07T10:02:09;4.25;;;1.65;;
13173;SDS011;6652;48.802;9.190;2023-05-07T10:04:37;5.50;;;2.20;;
13173;SDS011;6652;48.802;9.190;2023-05-07T10:07:04;4.63;;;1.92;;
13173;SDS011;6652;48.802;9.190;2023-05-07T10:09:31;3.35;;;1.48;;
13173;SDS011;6652;48.802;9.190;2023-05-07T10:12:03;2.67;;;1.75;;
13173;SDS011;6652;48.802;9.190;2023-05-07T10:14:33;2.47;;;1.55;;
13173;SDS011;6652;48.802;9.190;2023-05-07T10:17:00;3.17;;;1.80;;
13173;SDS011;6652;48.802;9.190;2023-05-07T10:19:28;3.30;;;1.83;;
13173;SDS011;6652;48.802;9.190;2023-05-07T10:21:58;2.95;;;1.52;;
13173;SDS011;6652;48.802;9.190;2023-05-07T10:24:31;2.47;;;1.60;;
13173;SDS011;6652;48.802;9.190;2023-05-07T10:27:00;3.55;;;1.92;;
13173;SDS011;6652;48.802;9.190;2023-05-07T10:29:33;3.95;;;1.75;;
13173;SDS011;6652;48.802;9.190;2023-05-07T10:32:12;2.65;;;1.83;;
13173;SDS011;6652;48.802;9.190;2023-05-07T10:34:53;3.80;;;1.48;;
13173;SDS011;6652;48.802;9.190;2023-05-07T10:37:23;5.80;;;1.70;;
13173;SDS011;6652;48.802;9.190;2023-05-07T10:39:51;6.05;;;1.70;;
13173;SDS011;6652;48.802;9.190;2023-05-07T10:42:18;4.15;;;1.35;;
13173;SDS011;6652;48.802;9.190;2023-05-07T10:44:46;2.42;;;1.45;;
13173;SDS011;6652;48.802;9.190;2023-05-07T10:47:14;3.42;;;1.60;;
13173;SDS011;6652;48.802;9.190;2023-05-07T10:52:46;5.38;;;1.42;;
13173;SDS011;6652;48.802;9.190;2023-05-07T10:58:51;2.13;;;1.50;;
13173;SDS011;6652;48.802;9.190;2023-05-07T11:04:16;4.43;;;1.50;;
13173;SDS011;6652;48.802;9.190;2023-05-07T11:10:01;2.60;;;1.60;;
13173;SDS011;6652;48.802;9.190;2023-05-07T11:12:46;2.17;;;1.35;;
13173;SDS011;6652;48.802;9.190;2023-05-07T11:18:06;4.00;;;1.50;;
13173;SDS011;6652;48.802;9.190;2023-05-07T11:20:44;6.60;;;1.70;;
13173;SDS011;6652;48.802;9.190;2023-05-07T11:26:25;4.45;;;1.55;;
13173;SDS011;6652;48.802;9.190;2023-05-07T11:28:53;4.30;;;1.67;;
13173;SDS011;6652;48.802;9.190;2023-05-07T11:31:21;5.10;;;1.83;;
13173;SDS011;6652;48.802;9.190;2023-05-07T11:33:49;4.60;;;1.77;;
13173;SDS011;6652;48.802;9.190;2023-05-07T11:36:16;4.15;;;1.60;;
13173;SDS011;6652;48.802;9.190;2023-05-07T11:38:45;2.17;;;1.40;;
13173;SDS011;6652;48.802;9.190;2023-05-07T11:41:12;2.30;;;1.80;;
13173;SDS011;6652;48.802;9.190;2023-05-07T11:43:54;2.90;;;1.90;;
13173;SDS011;6652;48.802;9.190;2023-05-07T11:46:22;4.78;;;1.80;;
13173;SDS011;6652;48.802;9.190;2023-05-07T11:48:49;7.38;;;1.83;;
13173;SDS011;6652;48.802;9.190;2023-05-07T11:51:18;5.25;;;1.77;;
13173;SDS011;6652;48.802;9.190;2023-05-07T11:53:46;4.50;;;1.70;;
13173;SDS011;6652;48.802;9.190;2023-05-07T11:56:14;5.65;;;1.70;;
13173;SDS011;6652;48.802;9.190;2023-05-07T11:58:43;4.13;;;2.30;;
13173;SDS011;6652;48.802;9.190;2023-05-07T12:01:12;3.25;;;1.98;;
13173;SDS011;6652;48.802;9.190;2023-05-07T12:03:41;3.45;;;1.63;;
13173;SDS011;6652;48.802;9.190;2023-05-07T12:06:09;2.25;;;1.75;;
13173;SDS011;6652;48.802;9.190;2023-05-07T12:08:37;3.67;;;1.75;;
13173;SDS011;6652;48.802;9.190;2023-05-07T12:11:06;2.83;;;1.85;;
13173;SDS011;6652;48.802;9.190;2023-05-07T12:13:34;5.18;;;1.70;;
13173;SDS011;6652;48.802;9.190;2023-05-07T12:16:01;2.80;;;1.85;;
13173;SDS011;6652;48.802;9.190;2023-05-07T12:18:31;3.92;;;1.85;;
13173;SDS011;6652;48.802;9.190;2023-05-07T12:20:58;3.88;;;2.42;;
13173;SDS011;6652;48.802;9.190;2023-05-07T12:23:26;6.93;;;2.55;;
13173;SDS011;6652;48.802;9.190;2023-05-07T12:25:53;8.77;;;2.85;;
13173;SDS011;6652;48.802;9.190;2023-05-07T12:28:19;6.13;;;2.83;;
13173;SDS011;6652;48.802;9.190;2023-05-07T12:30:46;5.38;;;3.00;;
13173;SDS011;6652;48.802;9.190;2023-05-07T12:33:15;8.10;;;2.70;;
13173;SDS011;6652;48.802;9.190;2023-05-07T12:35:44;10.10;;;3.00;;
13173;SDS011;6652;48.802;9.190;2023-05-07T12:38:12;8.48;;;3.30;;
13173;SDS011;6652;48.802;9.190;2023-05-07T12:40:41;6.45;;;3.60;;
13173;SDS011;6652;48.802;9.190;2023-05-07T12:43:14;6.82;;;3.47;;
13173;SDS011;6652;48.802;9.190;2023-05-07T12:45:42;7.20;;;3.15;;
13173;SDS011;6652;48.802;9.190;2023-05-07T12:48:10;8.52;;;3.25;;
13173;SDS011;6652;48.802;9.190;2023-05-07T12:50:37;7.68;;;3.47;;
13173;SDS011;6652;48.802;9.190;2023-05-07T12:53:05;12.02;;;3.78;;
13173;SDS011;6652;48.802;9.190;2023-05-07T12:55:39;7.05;;;3.22;;
13173;SDS011;6652;48.802;9.190;2023-05-07T12:58:08;9.90;;;2.72;;
13173;SDS011;6652;48.802;9.190;2023-05-07T13:00:41;9.38;;;1.95;;
13173;SDS011;6652;48.802;9.190;2023-05-07T13:03:08;3.17;;;1.40;;
13173;SDS011;6652;48.802;9.190;2023-05-07T13:05:35;3.78;;;1.15;;
13173;SDS011;6652;48.802;9.190;2023-05-07T13:08:02;6.78;;;2.22;;
13173;SDS011;6652;48.802;9.190;2023-05-07T13:10:30;3.70;;;1.20;;
13173;SDS011;6652;48.802;9.190;2023-05-07T13:12:59;6.43;;;2.10;;
13173;SDS011;6652;48.802;9.190;2023-05-07T13:15:25;7.15;;;1.77;;
13173;SDS011;6652;48.802;9.190;2023-05-07T13:17:53;6.65;;;2.50;;
13173;SDS011;6652;48.802;9.190;2023-05-07T13:20:20;3.70;;;1.75;;
13173;SDS011;6652;48.802;9.190;2023-05-07T13:22:47;5.63;;;2.35;;
13173;SDS011;6652;48.802;9.190;2023-05-07T13:25:15;4.95;;;1.52;;
13173;SDS011;6652;48.802;9.190;2023-05-07T13:27:42;7.90;;;1.85;;
13173;SDS011;6652;48.802;9.190;2023-05-07T13:30:08;5.97;;;1.48;;
13173;SDS011;6652;48.802;9.190;2023-05-07T13:32:50;6.65;;;2.00;;
13173;SDS011;6652;48.802;9.190;2023-05-07T13:35:17;2.80;;;1.60;;
13173;SDS011;6652;48.802;9.190;2023-05-07T13:37:44;2.92;;;1.60;;
13173;SDS011;6652;48.802;9.190;2023-05-07T13:40:11;6.35;;;1.45;;
13173;SDS011;6652;48.802;9.190;2023-05-07T13:42:39;5.00;;;2.08;;
13173;SDS011;6652;48.802;9.190;2023-05-07T13:45:07;6.60;;;2.25;;
13173;SDS011;6652;48.802;9.190;2023-05-07T13:47:35;1.88;;;1.25;;
13173;SDS011;6652;48.802;9.190;2023-05-07T13:50:01;3.30;;;1.40;;
13173;SDS011;6652;48.802;9.190;2023-05-07T13:52:28;5.57;;;1.63;;
13173;SDS011;6652;48.802;9.190;2023-05-07T13:54:55;9.43;;;2.78;;
13173;SDS011;6652;48.802;9.190;2023-05-07T13:57:23;10.05;;;3.10;;
13173;SDS011;6652;48.802;9.190;2023-05-07T13:59:51;6.80;;;2.53;;
13173;SDS011;6652;48.802;9.190;2023-05-07T14:02:18;12.30;;;2.85;;
13173;SDS011;6652;48.802;9.190;2023-05-07T14:04:45;8.00;;;3.17;;
13173;SDS011;6652;48.802;9.190;2023-05-07T14:07:12;10.95;;;4.18;;
13173;SDS011;6652;48.802;9.190;2023-05-07T14:09:39;8.48;;;3.80;;
13173;SDS011;6652;48.802;9.190;2023-05-07T14:12:06;6.70;;;2.33;;
13173;SDS011;6652;48.802;9.190;2023-05-07T14:14:33;7.43;;;2.45;;
13173;SDS011;6652;48.802;9.190;2023-05-07T14:17:01;6.55;;;2.10;;
13173;SDS011;6652;48.802;9.190;2023-05-07T14:19:28;2.97;;;1.98;;
13173;SDS011;6652;48.802;9.190;2023-05-07T14:21:55;5.10;;;2.35;;
13173;SDS011;6652;48.802;9.190;2023-05-07T14:24:22;12.60;;;3.78;;
13173;SDS011;6652;48.802;9.190;2023-05-07T14:26:51;8.25;;;3.15;;
13173;SDS011;6652;48.802;9.190;2023-05-07T14:29:18;11.13;;;4.22;;
13173;SDS011;6652;48.802;9.190;2023-05-07T14:31:44;10.70;;;4.72;;
13173;SDS011;6652;48.802;9.190;2023-05-07T14:34:13;8.13;;;4.82;;
13173;SDS011;6652;48.802;9.190;2023-05-07T14:36:40;8.88;;;4.00;;
13173;SDS011;6652;48.802;9.190;2023-05-07T14:39:10;8.60;;;4.28;;
13173;SDS011;6652;48.802;9.190;2023-05-07T14:41:39;9.07;;;5.25;;
13173;SDS011;6652;48.802;9.190;2023-05-07T14:44:13;8.35;;;2.83;;
13173;SDS011;6652;48.802;9.190;2023-05-07T14:46:40;8.65;;;3.03;;
13173;SDS011;6652;48.802;9.190;2023-05-07T14:49:07;5.47;;;2.40;;
13173;SDS011;6652;48.802;9.190;2023-05-07T14:51:42;7.07;;;1.92;;
13173;SDS011;6652;48.802;9.190;2023-05-07T14:54:10;3.67;;;2.05;;
13173;SDS011;6652;48.802;9.190;2023-05-07T14:56:37;6.50;;;2.10;;
13173;SDS011;6652;48.802;9.190;2023-05-07T14:59:04;2.53;;;1.70;;
13173;SDS011;6652;48.802;9.190;2023-05-07T15:01:35;4.13;;;1.98;;
13173;SDS011;6652;48.802;9.190;2023-05-07T15:04:03;3.35;;;2.03;;
13173;SDS011;6652;48.802;9.190;2023-05-07T15:06:31;4.28;;;2.10;;
13173;SDS011;6652;48.802;9.190;2023-05-07T15:09:00;7.15;;;2.40;;
13173;SDS011;6652;48.802;9.190;2023-05-07T15:11:28;12.18;;;4.07;;
13173;SDS011;6652;48.802;9.190;2023-05-07T15:13:55;7.18;;;2.80;;
13173;SDS011;6652;48.802;9.190;2023-05-07T15:16:22;4.13;;;2.13;;
13173;SDS011;6652;48.802;9.190;2023-05-07T15:18:49;4.72;;;2.22;;
13173;SDS011;6652;48.802;9.190;2023-05-07T15:21:16;3.25;;;1.88;;
13173;SDS011;6652;48.802;9.190;2023-05-07T15:23:43;6.30;;;2.38;;
13173;SDS011;6652;48.802;9.190;2023-05-07T15:26:12;5.75;;;2.65;;